sensor_id;sensor_type;location;lat;lon;timestamp;temperature;humidity
6986;DHT22;3533;51.246;6.850;2022-08-18T00:01:16;24.80;47.40
6986;DHT22;3533;51.246;6.850;2022-08-18T00:03:43;24.80;47.40
6986;DHT22;3533;51.246;6.850;2022-08-18T00:06:08;24.80;47.40
6986;DHT22;3533;51.246;6.850;2022-08-18T00:08:34;24.80;47.50
6986;DHT22;3533;51.246;6.850;2022-08-18T00:11:00;24.80;47.40
6986;DHT22;3533;51.246;6.850;2022-08-18T00:13:25;24.80;47.40
6986;DHT22;3533;51.246;6.850;2022-08-18T00:15:51;24.80;47.40
6986;DHT22;3533;51.246;6.850;2022-08-18T00:18:17;24.80;47.40
6986;DHT22;3533;51.246;6.850;2022-08-18T00:20:42;24.80;47.40
6986;DHT22;3533;51.246;6.850;2022-08-18T00:23:08;24.80;47.50
6986;DHT22;3533;51.246;6.850;2022-08-18T00:25:34;24.80;47.40
6986;DHT22;3533;51.246;6.850;2022-08-18T00:28:00;24.80;47.50
6986;DHT22;3533;51.246;6.850;2022-08-18T00:30:25;24.80;47.40
6986;DHT22;3533;51.246;6.850;2022-08-18T00:32:56;24.80;47.40
6986;DHT22;3533;51.246;6.850;2022-08-18T00:35:25;24.80;47.40
6986;DHT22;3533;51.246;6.850;2022-08-18T00:37:53;24.80;47.40
6986;DHT22;3533;51.246;6.850;2022-08-18T00:40:22;24.80;47.50
6986;DHT22;3533;51.246;6.850;2022-08-18T00:42:52;24.80;47.50
6986;DHT22;3533;51.246;6.850;2022-08-18T00:45:29;24.80;47.50
6986;DHT22;3533;51.246;6.850;2022-08-18T00:47:55;24.80;47.40
6986;DHT22;3533;51.246;6.850;2022-08-18T00:50:44;24.80;47.50
6986;DHT22;3533;51.246;6.850;2022-08-18T00:53:16;24.80;47.50
6986;DHT22;3533;51.246;6.850;2022-08-18T00:55:44;24.80;47.60
6986;DHT22;3533;51.246;6.850;2022-08-18T00:58:27;24.80;47.50
6986;DHT22;3533;51.246;6.850;2022-08-18T01:00:53;24.80;47.50
6986;DHT22;3533;51.246;6.850;2022-08-18T01:03:20;24.80;47.50
6986;DHT22;3533;51.246;6.850;2022-08-18T01:05:55;24.80;47.50
6986;DHT22;3533;51.246;6.850;2022-08-18T01:08:23;24.80;47.50
6986;DHT22;3533;51.246;6.850;2022-08-18T01:10:50;24.80;48.30
6986;DHT22;3533;51.246;6.850;2022-08-18T01:13:15;24.80;47.50
6986;DHT22;3533;51.246;6.850;2022-08-18T01:15:41;24.80;47.60
6986;DHT22;3533;51.246;6.850;2022-08-18T01:18:11;24.70;47.50
6986;DHT22;3533;51.246;6.850;2022-08-18T01:23:51;24.80;48.30
6986;DHT22;3533;51.246;6.850;2022-08-18T01:26:18;24.70;47.60
6986;DHT22;3533;51.246;6.850;2022-08-18T01:28:46;24.70;47.60
6986;DHT22;3533;51.246;6.850;2022-08-18T01:31:31;24.70;47.60
6986;DHT22;3533;51.246;6.850;2022-08-18T01:33:58;24.70;47.50
6986;DHT22;3533;51.246;6.850;2022-08-18T01:36:25;24.70;47.60
6986;DHT22;3533;51.246;6.850;2022-08-18T01:38:52;24.80;47.60
6986;DHT22;3533;51.246;6.850;2022-08-18T01:41:20;24.70;47.60
6986;DHT22;3533;51.246;6.850;2022-08-18T01:43:47;24.70;47.50
6986;DHT22;3533;51.246;6.850;2022-08-18T01:46:13;24.70;47.60
6986;DHT22;3533;51.246;6.850;2022-08-18T01:48:45;24.70;48.30
6986;DHT22;3533;51.246;6.850;2022-08-18T01:51:11;24.70;47.60
6986;DHT22;3533;51.246;6.850;2022-08-18T01:53:38;24.70;47.60
6986;DHT22;3533;51.246;6.850;2022-08-18T01:56:04;24.70;47.60
6986;DHT22;3533;51.246;6.850;2022-08-18T01:58:31;24.70;47.60
6986;DHT22;3533;51.246;6.850;2022-08-18T02:00:59;24.70;47.60
6986;DHT22;3533;51.246;6.850;2022-08-18T02:03:36;24.70;47.60
6986;DHT22;3533;51.246;6.850;2022-08-18T02:06:08;24.70;47.60
6986;DHT22;3533;51.246;6.850;2022-08-18T02:08:34;24.70;47.60
6986;DHT22;3533;51.246;6.850;2022-08-18T02:11:00;24.70;47.60
6986;DHT22;3533;51.246;6.850;2022-08-18T02:13:28;24.70;47.60
6986;DHT22;3533;51.246;6.850;2022-08-18T02:15:54;24.70;47.60
6986;DHT22;3533;51.246;6.850;2022-08-18T02:18:23;24.70;47.60
6986;DHT22;3533;51.246;6.850;2022-08-18T02:20:49;24.70;47.60
6986;DHT22;3533;51.246;6.850;2022-08-18T02:23:15;24.70;47.60
6986;DHT22;3533;51.246;6.850;2022-08-18T02:25:42;24.70;47.60
6986;DHT22;3533;51.246;6.850;2022-08-18T02:28:08;24.70;47.60
6986;DHT22;3533;51.246;6.850;2022-08-18T02:30:35;24.70;47.60
6986;DHT22;3533;51.246;6.850;2022-08-18T02:33:04;24.70;47.60
6986;DHT22;3533;51.246;6.850;2022-08-18T02:35:31;24.70;47.60
6986;DHT22;3533;51.246;6.850;2022-08-18T02:38:01;24.70;47.70
6986;DHT22;3533;51.246;6.850;2022-08-18T02:40:28;24.70;47.60
6986;DHT22;3533;51.246;6.850;2022-08-18T02:42:54;24.70;47.70
6986;DHT22;3533;51.246;6.850;2022-08-18T02:45:21;24.70;47.70
6986;DHT22;3533;51.246;6.850;2022-08-18T02:47:55;24.70;47.70
6986;DHT22;3533;51.246;6.850;2022-08-18T02:50:21;24.70;47.70
6986;DHT22;3533;51.246;6.850;2022-08-18T02:52:47;24.70;47.70
6986;DHT22;3533;51.246;6.850;2022-08-18T02:55:13;24.70;47.70
6986;DHT22;3533;51.246;6.850;2022-08-18T02:57:42;24.70;47.70
6986;DHT22;3533;51.246;6.850;2022-08-18T03:00:08;24.70;47.70
6986;DHT22;3533;51.246;6.850;2022-08-18T03:02:37;24.70;47.80
6986;DHT22;3533;51.246;6.850;2022-08-18T03:05:03;24.70;47.70
6986;DHT22;3533;51.246;6.850;2022-08-18T03:07:29;24.70;47.80
6986;DHT22;3533;51.246;6.850;2022-08-18T03:09:54;24.70;47.80
6986;DHT22;3533;51.246;6.850;2022-08-18T03:12:20;24.70;47.70
6986;DHT22;3533;51.246;6.850;2022-08-18T03:14:46;24.70;47.80
6986;DHT22;3533;51.246;6.850;2022-08-18T03:17:11;24.70;47.80
6986;DHT22;3533;51.246;6.850;2022-08-18T03:19:39;24.70;47.80
6986;DHT22;3533;51.246;6.850;2022-08-18T03:22:07;24.70;47.80
6986;DHT22;3533;51.246;6.850;2022-08-18T03:24:33;24.70;47.80
6986;DHT22;3533;51.246;6.850;2022-08-18T03:27:00;24.70;47.80
6986;DHT22;3533;51.246;6.850;2022-08-18T03:29:28;24.70;47.80
6986;DHT22;3533;51.246;6.850;2022-08-18T03:31:53;24.70;47.80
6986;DHT22;3533;51.246;6.850;2022-08-18T03:34:19;24.70;47.90
6986;DHT22;3533;51.246;6.850;2022-08-18T03:36:46;24.70;47.80
6986;DHT22;3533;51.246;6.850;2022-08-18T03:39:13;24.70;47.90
6986;DHT22;3533;51.246;6.850;2022-08-18T03:41:40;24.70;47.80
6986;DHT22;3533;51.246;6.850;2022-08-18T03:44:08;24.70;47.90
6986;DHT22;3533;51.246;6.850;2022-08-18T03:46:34;24.70;47.90
6986;DHT22;3533;51.246;6.850;2022-08-18T03:49:00;24.70;47.90
6986;DHT22;3533;51.246;6.850;2022-08-18T03:51:29;24.70;47.90
6986;DHT22;3533;51.246;6.850;2022-08-18T03:53:58;24.70;47.90
6986;DHT22;3533;51.246;6.850;2022-08-18T03:56:30;24.70;47.90
6986;DHT22;3533;51.246;6.850;2022-08-18T03:59:00;24.70;47.90
6986;DHT22;3533;51.246;6.850;2022-08-18T04:01:31;24.70;47.90
6986;DHT22;3533;51.246;6.850;2022-08-18T04:04:02;24.70;47.90
6986;DHT22;3533;51.246;6.850;2022-08-18T04:06:39;24.70;47.90
6986;DHT22;3533;51.246;6.850;2022-08-18T04:09:08;24.70;47.90
6986;DHT22;3533;51.246;6.850;2022-08-18T04:11:35;24.70;47.90
6986;DHT22;3533;51.246;6.850;2022-08-18T04:14:01;24.70;47.90
6986;DHT22;3533;51.246;6.850;2022-08-18T04:16:28;24.70;48.00
6986;DHT22;3533;51.246;6.850;2022-08-18T04:18:56;24.70;48.00
6986;DHT22;3533;51.246;6.850;2022-08-18T04:21:26;24.70;48.00
6986;DHT22;3533;51.246;6.850;2022-08-18T04:23:51;24.70;48.00
6986;DHT22;3533;51.246;6.850;2022-08-18T04:26:17;24.70;48.00
6986;DHT22;3533;51.246;6.850;2022-08-18T04:28:44;24.70;47.90
6986;DHT22;3533;51.246;6.850;2022-08-18T04:31:12;24.70;48.00
6986;DHT22;3533;51.246;6.850;2022-08-18T04:33:38;24.70;48.00
6986;DHT22;3533;51.246;6.850;2022-08-18T04:36:10;24.70;48.00
6986;DHT22;3533;51.246;6.850;2022-08-18T04:38:37;24.70;48.00
6986;DHT22;3533;51.246;6.850;2022-08-18T04:41:04;24.70;48.00
6986;DHT22;3533;51.246;6.850;2022-08-18T04:43:30;24.70;47.90
6986;DHT22;3533;51.246;6.850;2022-08-18T04:45:56;24.70;48.00
6986;DHT22;3533;51.246;6.850;2022-08-18T04:48:28;24.70;47.90
6986;DHT22;3533;51.246;6.850;2022-08-18T04:51:11;24.70;48.00
6986;DHT22;3533;51.246;6.850;2022-08-18T04:53:37;24.70;48.00
6986;DHT22;3533;51.246;6.850;2022-08-18T04:58:45;24.70;48.70
6986;DHT22;3533;51.246;6.850;2022-08-18T05:01:17;24.70;48.00
6986;DHT22;3533;51.246;6.850;2022-08-18T05:03:42;24.70;48.00
6986;DHT22;3533;51.246;6.850;2022-08-18T05:06:09;24.70;48.00
6986;DHT22;3533;51.246;6.850;2022-08-18T05:08:35;24.70;48.00
6986;DHT22;3533;51.246;6.850;2022-08-18T05:11:00;24.70;48.00
6986;DHT22;3533;51.246;6.850;2022-08-18T05:13:26;24.70;47.90
6986;DHT22;3533;51.246;6.850;2022-08-18T05:15:56;24.70;48.00
6986;DHT22;3533;51.246;6.850;2022-08-18T05:18:23;24.70;48.00
6986;DHT22;3533;51.246;6.850;2022-08-18T05:20:54;24.70;48.00
6986;DHT22;3533;51.246;6.850;2022-08-18T05:23:20;24.70;48.00
6986;DHT22;3533;51.246;6.850;2022-08-18T05:25:46;24.70;48.00
6986;DHT22;3533;51.246;6.850;2022-08-18T05:28:12;24.70;48.00
6986;DHT22;3533;51.246;6.850;2022-08-18T05:30:39;24.70;48.00
6986;DHT22;3533;51.246;6.850;2022-08-18T05:33:07;24.70;47.90
6986;DHT22;3533;51.246;6.850;2022-08-18T05:35:48;24.70;47.90
6986;DHT22;3533;51.246;6.850;2022-08-18T05:38:32;24.70;47.90
6986;DHT22;3533;51.246;6.850;2022-08-18T05:41:12;24.70;47.90
6986;DHT22;3533;51.246;6.850;2022-08-18T05:43:39;24.70;47.90
6986;DHT22;3533;51.246;6.850;2022-08-18T05:46:08;24.70;47.90
6986;DHT22;3533;51.246;6.850;2022-08-18T05:48:34;24.70;47.90
6986;DHT22;3533;51.246;6.850;2022-08-18T05:51:07;24.70;47.90
6986;DHT22;3533;51.246;6.850;2022-08-18T05:53:34;24.70;48.00
6986;DHT22;3533;51.246;6.850;2022-08-18T05:56:23;24.70;48.00
6986;DHT22;3533;51.246;6.850;2022-08-18T05:59:09;24.70;48.00
6986;DHT22;3533;51.246;6.850;2022-08-18T06:01:43;24.70;48.00
6986;DHT22;3533;51.246;6.850;2022-08-18T06:04:22;24.70;48.00
6986;DHT22;3533;51.246;6.850;2022-08-18T06:06:52;24.70;48.00
6986;DHT22;3533;51.246;6.850;2022-08-18T06:09:30;24.70;48.10
6986;DHT22;3533;51.246;6.850;2022-08-18T06:12:14;24.70;48.00
6986;DHT22;3533;51.246;6.850;2022-08-18T06:14:41;24.70;48.00
6986;DHT22;3533;51.246;6.850;2022-08-18T06:20:14;24.70;48.00
6986;DHT22;3533;51.246;6.850;2022-08-18T06:25:32;24.70;48.00
6986;DHT22;3533;51.246;6.850;2022-08-18T06:28:08;24.70;48.10
6986;DHT22;3533;51.246;6.850;2022-08-18T06:30:49;24.70;48.10
6986;DHT22;3533;51.246;6.850;2022-08-18T06:36:02;24.70;48.20
6986;DHT22;3533;51.246;6.850;2022-08-18T06:41:19;24.70;48.10
6986;DHT22;3533;51.246;6.850;2022-08-18T06:44:04;24.70;48.10
6986;DHT22;3533;51.246;6.850;2022-08-18T06:51:55;24.70;48.10
6986;DHT22;3533;51.246;6.850;2022-08-18T06:56:51;24.70;47.70
6986;DHT22;3533;51.246;6.850;2022-08-18T06:59:32;24.70;47.60
6986;DHT22;3533;51.246;6.850;2022-08-18T07:02:09;24.70;47.50
6986;DHT22;3533;51.246;6.850;2022-08-18T07:04:56;24.70;47.30
6986;DHT22;3533;51.246;6.850;2022-08-18T07:07:34;24.70;47.20
6986;DHT22;3533;51.246;6.850;2022-08-18T07:10:01;24.70;47.10
6986;DHT22;3533;51.246;6.850;2022-08-18T07:12:28;24.70;47.00
6986;DHT22;3533;51.246;6.850;2022-08-18T07:15:00;24.70;47.00
6986;DHT22;3533;51.246;6.850;2022-08-18T07:17:29;24.70;47.10
6986;DHT22;3533;51.246;6.850;2022-08-18T07:22:24;24.70;47.20
6986;DHT22;3533;51.246;6.850;2022-08-18T07:24:52;24.70;47.20
6986;DHT22;3533;51.246;6.850;2022-08-18T07:27:47;24.70;47.30
6986;DHT22;3533;51.246;6.850;2022-08-18T07:35:16;24.70;47.40
6986;DHT22;3533;51.246;6.850;2022-08-18T07:42:59;24.70;47.50
6986;DHT22;3533;51.246;6.850;2022-08-18T07:48:11;24.70;47.60
6986;DHT22;3533;51.246;6.850;2022-08-18T07:51:08;24.70;47.70
6986;DHT22;3533;51.246;6.850;2022-08-18T07:57:05;24.70;47.80
6986;DHT22;3533;51.246;6.850;2022-08-18T07:59:15;24.70;47.80
6986;DHT22;3533;51.246;6.850;2022-08-18T08:04:41;24.70;47.90
6986;DHT22;3533;51.246;6.850;2022-08-18T08:07:23;24.70;47.90
6986;DHT22;3533;51.246;6.850;2022-08-18T08:20:42;24.70;48.10
6986;DHT22;3533;51.246;6.850;2022-08-18T08:23:17;24.70;48.10
6986;DHT22;3533;51.246;6.850;2022-08-18T08:26:35;24.70;48.20
6986;DHT22;3533;51.246;6.850;2022-08-18T08:29:10;24.70;48.10
6986;DHT22;3533;51.246;6.850;2022-08-18T08:31:53;24.70;48.20
6986;DHT22;3533;51.246;6.850;2022-08-18T08:34:51;24.70;48.20
6986;DHT22;3533;51.246;6.850;2022-08-18T08:37:32;24.70;48.20
6986;DHT22;3533;51.246;6.850;2022-08-18T08:40:06;24.60;48.20
6986;DHT22;3533;51.246;6.850;2022-08-18T08:45:33;24.70;48.30
6986;DHT22;3533;51.246;6.850;2022-08-18T08:48:18;24.70;48.30
6986;DHT22;3533;51.246;6.850;2022-08-18T08:53:25;24.60;48.20
6986;DHT22;3533;51.246;6.850;2022-08-18T08:55:56;24.60;48.20
6986;DHT22;3533;51.246;6.850;2022-08-18T08:58:39;24.60;48.20
6986;DHT22;3533;51.246;6.850;2022-08-18T09:01:19;24.70;48.30
6986;DHT22;3533;51.246;6.850;2022-08-18T09:04:02;24.60;48.20
6986;DHT22;3533;51.246;6.850;2022-08-18T09:07:33;24.60;48.20
6986;DHT22;3533;51.246;6.850;2022-08-18T09:12:23;24.60;48.20
6986;DHT22;3533;51.246;6.850;2022-08-18T09:21:03;24.60;48.20
6986;DHT22;3533;51.246;6.850;2022-08-18T09:23:34;24.60;48.10
6986;DHT22;3533;51.246;6.850;2022-08-18T09:28:59;24.60;48.20
6986;DHT22;3533;51.246;6.850;2022-08-18T09:31:30;24.60;48.10
6986;DHT22;3533;51.246;6.850;2022-08-18T09:39:35;24.60;48.00
6986;DHT22;3533;51.246;6.850;2022-08-18T09:42:57;24.60;48.00
6986;DHT22;3533;51.246;6.850;2022-08-18T09:50:56;24.60;47.90
6986;DHT22;3533;51.246;6.850;2022-08-18T09:53:50;24.60;47.90
6986;DHT22;3533;51.246;6.850;2022-08-18T09:59:51;24.60;47.90
6986;DHT22;3533;51.246;6.850;2022-08-18T10:07:43;24.60;47.90
6986;DHT22;3533;51.246;6.850;2022-08-18T10:10:26;24.60;48.00
6986;DHT22;3533;51.246;6.850;2022-08-18T10:18:38;24.60;48.00
6986;DHT22;3533;51.246;6.850;2022-08-18T10:21:21;24.60;47.90
6986;DHT22;3533;51.246;6.850;2022-08-18T10:29:09;24.60;48.00
6986;DHT22;3533;51.246;6.850;2022-08-18T10:34:55;24.60;47.80
6986;DHT22;3533;51.246;6.850;2022-08-18T10:37:38;24.60;47.90
6986;DHT22;3533;51.246;6.850;2022-08-18T10:45:19;24.60;47.90
6986;DHT22;3533;51.246;6.850;2022-08-18T10:50:53;24.60;47.80
6986;DHT22;3533;51.246;6.850;2022-08-18T10:53:36;24.60;47.90
6986;DHT22;3533;51.246;6.850;2022-08-18T10:56:17;24.60;47.80
6986;DHT22;3533;51.246;6.850;2022-08-18T10:59:02;24.60;47.80
6986;DHT22;3533;51.246;6.850;2022-08-18T11:04:47;24.60;47.90
6986;DHT22;3533;51.246;6.850;2022-08-18T11:07:18;24.60;47.90
6986;DHT22;3533;51.246;6.850;2022-08-18T11:09:50;24.60;47.80
6986;DHT22;3533;51.246;6.850;2022-08-18T11:20:41;24.60;47.80
6986;DHT22;3533;51.246;6.850;2022-08-18T11:23:13;24.60;47.80
6986;DHT22;3533;51.246;6.850;2022-08-18T11:25:40;24.50;47.70
6986;DHT22;3533;51.246;6.850;2022-08-18T11:28:20;24.60;47.80
6986;DHT22;3533;51.246;6.850;2022-08-18T11:30:51;24.60;47.80
6986;DHT22;3533;51.246;6.850;2022-08-18T11:33:19;24.60;48.50
6986;DHT22;3533;51.246;6.850;2022-08-18T11:35:53;24.60;47.80
6986;DHT22;3533;51.246;6.850;2022-08-18T11:38:22;24.60;47.70
6986;DHT22;3533;51.246;6.850;2022-08-18T11:43:58;24.60;47.70
6986;DHT22;3533;51.246;6.850;2022-08-18T11:46:30;24.60;47.70
6986;DHT22;3533;51.246;6.850;2022-08-18T11:48:58;24.60;47.70
6986;DHT22;3533;51.246;6.850;2022-08-18T11:51:30;24.60;47.70
6986;DHT22;3533;51.246;6.850;2022-08-18T11:54:22;24.60;47.80
6986;DHT22;3533;51.246;6.850;2022-08-18T11:57:30;24.60;47.70
6986;DHT22;3533;51.246;6.850;2022-08-18T12:00:35;24.60;47.70
6986;DHT22;3533;51.246;6.850;2022-08-18T12:03:15;24.60;47.80
6986;DHT22;3533;51.246;6.850;2022-08-18T12:05:53;24.60;47.80
6986;DHT22;3533;51.246;6.850;2022-08-18T12:08:33;24.60;47.80
6986;DHT22;3533;51.246;6.850;2022-08-18T12:11:04;24.60;47.80
6986;DHT22;3533;51.246;6.850;2022-08-18T12:13:30;24.60;47.80
6986;DHT22;3533;51.246;6.850;2022-08-18T12:16:12;24.60;47.90
6986;DHT22;3533;51.246;6.850;2022-08-18T12:18:38;24.60;47.90
6986;DHT22;3533;51.246;6.850;2022-08-18T12:21:04;24.60;47.90
6986;DHT22;3533;51.246;6.850;2022-08-18T12:23:32;24.60;47.90
6986;DHT22;3533;51.246;6.850;2022-08-18T12:25:58;24.60;47.90
6986;DHT22;3533;51.246;6.850;2022-08-18T12:28:24;24.60;47.90
6986;DHT22;3533;51.246;6.850;2022-08-18T12:30:51;24.60;47.80
6986;DHT22;3533;51.246;6.850;2022-08-18T12:33:17;24.60;47.90
6986;DHT22;3533;51.246;6.850;2022-08-18T12:35:43;24.60;47.90
6986;DHT22;3533;51.246;6.850;2022-08-18T12:38:09;24.60;47.80
6986;DHT22;3533;51.246;6.850;2022-08-18T12:40:35;24.60;48.20
6986;DHT22;3533;51.246;6.850;2022-08-18T12:43:00;24.60;47.80
6986;DHT22;3533;51.246;6.850;2022-08-18T12:45:26;24.60;47.80
6986;DHT22;3533;51.246;6.850;2022-08-18T12:47:52;24.70;47.80
6986;DHT22;3533;51.246;6.850;2022-08-18T12:50:18;24.70;47.80
6986;DHT22;3533;51.246;6.850;2022-08-18T12:52:44;24.60;47.70
6986;DHT22;3533;51.246;6.850;2022-08-18T12:55:11;24.70;47.80
6986;DHT22;3533;51.246;6.850;2022-08-18T12:57:36;24.70;47.80
6986;DHT22;3533;51.246;6.850;2022-08-18T13:00:03;24.70;47.80
6986;DHT22;3533;51.246;6.850;2022-08-18T13:02:29;24.70;47.80
6986;DHT22;3533;51.246;6.850;2022-08-18T13:04:55;24.70;47.70
6986;DHT22;3533;51.246;6.850;2022-08-18T13:07:20;24.70;47.70
6986;DHT22;3533;51.246;6.850;2022-08-18T13:09:46;24.70;47.70
6986;DHT22;3533;51.246;6.850;2022-08-18T13:12:11;24.70;47.70
6986;DHT22;3533;51.246;6.850;2022-08-18T13:14:38;24.70;47.70
6986;DHT22;3533;51.246;6.850;2022-08-18T13:17:04;24.70;47.70
6986;DHT22;3533;51.246;6.850;2022-08-18T13:19:30;24.70;47.70
6986;DHT22;3533;51.246;6.850;2022-08-18T13:21:56;24.70;47.80
6986;DHT22;3533;51.246;6.850;2022-08-18T13:24:22;24.70;47.70
6986;DHT22;3533;51.246;6.850;2022-08-18T13:26:48;24.70;47.80
6986;DHT22;3533;51.246;6.850;2022-08-18T13:29:15;24.70;47.70
6986;DHT22;3533;51.246;6.850;2022-08-18T13:31:42;24.70;47.80
6986;DHT22;3533;51.246;6.850;2022-08-18T13:34:12;24.70;47.80
6986;DHT22;3533;51.246;6.850;2022-08-18T13:36:38;24.70;47.70
6986;DHT22;3533;51.246;6.850;2022-08-18T13:39:11;24.70;48.20
6986;DHT22;3533;51.246;6.850;2022-08-18T13:41:37;24.70;47.80
6986;DHT22;3533;51.246;6.850;2022-08-18T13:44:03;24.70;47.80
6986;DHT22;3533;51.246;6.850;2022-08-18T13:46:28;24.70;47.80
6986;DHT22;3533;51.246;6.850;2022-08-18T13:48:54;24.70;47.80
6986;DHT22;3533;51.246;6.850;2022-08-18T13:51:24;24.70;48.60
6986;DHT22;3533;51.246;6.850;2022-08-18T13:53:49;24.70;47.80
6986;DHT22;3533;51.246;6.850;2022-08-18T13:56:15;24.70;47.80
6986;DHT22;3533;51.246;6.850;2022-08-18T13:58:42;24.70;47.80
6986;DHT22;3533;51.246;6.850;2022-08-18T14:01:09;24.70;47.80
6986;DHT22;3533;51.246;6.850;2022-08-18T14:03:36;24.70;47.80
6986;DHT22;3533;51.246;6.850;2022-08-18T14:06:02;24.70;47.80
6986;DHT22;3533;51.246;6.850;2022-08-18T14:08:29;24.70;47.80
6986;DHT22;3533;51.246;6.850;2022-08-18T14:10:58;24.70;47.80
6986;DHT22;3533;51.246;6.850;2022-08-18T14:13:25;24.70;47.80
6986;DHT22;3533;51.246;6.850;2022-08-18T14:15:53;24.70;47.80
6986;DHT22;3533;51.246;6.850;2022-08-18T14:18:20;24.70;47.80
6986;DHT22;3533;51.246;6.850;2022-08-18T14:20:45;24.70;47.70
6986;DHT22;3533;51.246;6.850;2022-08-18T14:23:50;24.70;47.70
6986;DHT22;3533;51.246;6.850;2022-08-18T14:26:35;24.70;47.80
6986;DHT22;3533;51.246;6.850;2022-08-18T14:29:16;24.70;47.80
6986;DHT22;3533;51.246;6.850;2022-08-18T14:31:42;24.70;47.80
6986;DHT22;3533;51.246;6.850;2022-08-18T14:34:08;24.70;47.80
6986;DHT22;3533;51.246;6.850;2022-08-18T14:36:34;24.70;47.70
6986;DHT22;3533;51.246;6.850;2022-08-18T14:39:01;24.70;47.70
6986;DHT22;3533;51.246;6.850;2022-08-18T14:41:27;24.70;47.70
6986;DHT22;3533;51.246;6.850;2022-08-18T14:43:54;24.70;47.70
6986;DHT22;3533;51.246;6.850;2022-08-18T14:46:21;24.70;47.60
6986;DHT22;3533;51.246;6.850;2022-08-18T14:48:47;24.70;47.60
6986;DHT22;3533;51.246;6.850;2022-08-18T14:51:13;24.70;47.70
6986;DHT22;3533;51.246;6.850;2022-08-18T14:53:39;24.70;47.60
6986;DHT22;3533;51.246;6.850;2022-08-18T14:56:05;24.70;47.60
6986;DHT22;3533;51.246;6.850;2022-08-18T14:58:32;24.70;47.60
6986;DHT22;3533;51.246;6.850;2022-08-18T15:01:02;24.70;47.60
6986;DHT22;3533;51.246;6.850;2022-08-18T15:03:30;24.70;47.60
6986;DHT22;3533;51.246;6.850;2022-08-18T15:05:57;24.70;47.70
6986;DHT22;3533;51.246;6.850;2022-08-18T15:08:23;24.70;47.70
6986;DHT22;3533;51.246;6.850;2022-08-18T15:10:49;24.70;47.60
6986;DHT22;3533;51.246;6.850;2022-08-18T15:13:15;24.70;47.60
6986;DHT22;3533;51.246;6.850;2022-08-18T15:15:41;24.70;47.60
6986;DHT22;3533;51.246;6.850;2022-08-18T15:18:08;24.70;47.60
6986;DHT22;3533;51.246;6.850;2022-08-18T15:20:34;24.70;47.60
6986;DHT22;3533;51.246;6.850;2022-08-18T15:23:20;24.70;47.50
6986;DHT22;3533;51.246;6.850;2022-08-18T15:26:04;24.70;47.50
6986;DHT22;3533;51.246;6.850;2022-08-18T15:28:30;24.70;47.50
6986;DHT22;3533;51.246;6.850;2022-08-18T15:30:57;24.70;47.50
6986;DHT22;3533;51.246;6.850;2022-08-18T15:33:22;24.70;47.50
6986;DHT22;3533;51.246;6.850;2022-08-18T15:35:49;24.70;47.50
6986;DHT22;3533;51.246;6.850;2022-08-18T15:38:20;24.70;47.60
6986;DHT22;3533;51.246;6.850;2022-08-18T15:40:51;24.70;47.50
6986;DHT22;3533;51.246;6.850;2022-08-18T15:43:17;24.70;47.50
6986;DHT22;3533;51.246;6.850;2022-08-18T15:45:44;24.70;47.50
6986;DHT22;3533;51.246;6.850;2022-08-18T15:48:13;24.70;47.50
6986;DHT22;3533;51.246;6.850;2022-08-18T15:50:40;24.70;47.50
6986;DHT22;3533;51.246;6.850;2022-08-18T15:53:06;24.70;47.50
6986;DHT22;3533;51.246;6.850;2022-08-18T15:55:34;24.70;47.50
6986;DHT22;3533;51.246;6.850;2022-08-18T15:58:00;24.70;47.50
6986;DHT22;3533;51.246;6.850;2022-08-18T16:00:28;24.70;47.50
6986;DHT22;3533;51.246;6.850;2022-08-18T16:02:59;24.80;47.50
6986;DHT22;3533;51.246;6.850;2022-08-18T16:05:28;24.80;47.60
6986;DHT22;3533;51.246;6.850;2022-08-18T16:07:55;24.80;47.50
6986;DHT22;3533;51.246;6.850;2022-08-18T16:10:24;24.80;47.50
6986;DHT22;3533;51.246;6.850;2022-08-18T16:12:50;24.80;47.50
6986;DHT22;3533;51.246;6.850;2022-08-18T16:15:19;24.80;47.40
6986;DHT22;3533;51.246;6.850;2022-08-18T16:17:44;24.80;47.40
6986;DHT22;3533;51.246;6.850;2022-08-18T16:20:11;24.80;47.40
6986;DHT22;3533;51.246;6.850;2022-08-18T16:22:37;24.80;47.40
6986;DHT22;3533;51.246;6.850;2022-08-18T16:25:07;24.80;47.40
6986;DHT22;3533;51.246;6.850;2022-08-18T16:27:34;24.80;47.40
6986;DHT22;3533;51.246;6.850;2022-08-18T16:30:00;24.80;47.40
6986;DHT22;3533;51.246;6.850;2022-08-18T16:32:29;24.80;47.40
6986;DHT22;3533;51.246;6.850;2022-08-18T16:34:55;24.80;47.40
6986;DHT22;3533;51.246;6.850;2022-08-18T16:37:21;24.80;47.40
6986;DHT22;3533;51.246;6.850;2022-08-18T16:39:46;24.80;47.30
6986;DHT22;3533;51.246;6.850;2022-08-18T16:42:12;24.80;47.40
6986;DHT22;3533;51.246;6.850;2022-08-18T16:44:38;24.80;47.30
6986;DHT22;3533;51.246;6.850;2022-08-18T16:47:04;24.80;47.40
6986;DHT22;3533;51.246;6.850;2022-08-18T16:49:30;24.80;47.30
6986;DHT22;3533;51.246;6.850;2022-08-18T16:52:00;24.80;47.30
6986;DHT22;3533;51.246;6.850;2022-08-18T16:54:27;24.80;47.30
6986;DHT22;3533;51.246;6.850;2022-08-18T16:56:53;24.80;47.30
6986;DHT22;3533;51.246;6.850;2022-08-18T16:59:19;24.80;47.30
6986;DHT22;3533;51.246;6.850;2022-08-18T17:02:03;24.80;47.30
6986;DHT22;3533;51.246;6.850;2022-08-18T17:04:48;24.80;47.30
6986;DHT22;3533;51.246;6.850;2022-08-18T17:07:16;24.80;47.30
6986;DHT22;3533;51.246;6.850;2022-08-18T17:09:41;24.80;47.50
6986;DHT22;3533;51.246;6.850;2022-08-18T17:12:07;24.80;47.30
6986;DHT22;3533;51.246;6.850;2022-08-18T17:14:33;24.80;47.30
6986;DHT22;3533;51.246;6.850;2022-08-18T17:16:59;24.80;47.30
6986;DHT22;3533;51.246;6.850;2022-08-18T17:19:28;24.80;47.30
6986;DHT22;3533;51.246;6.850;2022-08-18T17:21:54;24.80;47.30
6986;DHT22;3533;51.246;6.850;2022-08-18T17:24:20;24.80;47.30
6986;DHT22;3533;51.246;6.850;2022-08-18T17:29:43;24.80;47.30
6986;DHT22;3533;51.246;6.850;2022-08-18T17:34:49;24.80;47.30
6986;DHT22;3533;51.246;6.850;2022-08-18T17:37:20;24.80;47.30
6986;DHT22;3533;51.246;6.850;2022-08-18T17:39:54;24.80;47.20
6986;DHT22;3533;51.246;6.850;2022-08-18T17:42:27;24.80;47.20
6986;DHT22;3533;51.246;6.850;2022-08-18T17:44:58;24.80;47.20
6986;DHT22;3533;51.246;6.850;2022-08-18T17:53:18;24.80;47.20
6986;DHT22;3533;51.246;6.850;2022-08-18T17:56:15;24.80;47.20
6986;DHT22;3533;51.246;6.850;2022-08-18T17:58:49;24.80;47.20
6986;DHT22;3533;51.246;6.850;2022-08-18T18:01:15;24.80;47.20
6986;DHT22;3533;51.246;6.850;2022-08-18T18:03:44;24.80;47.30
6986;DHT22;3533;51.246;6.850;2022-08-18T18:09:27;24.80;47.30
6986;DHT22;3533;51.246;6.850;2022-08-18T18:11:53;24.80;47.20
6986;DHT22;3533;51.246;6.850;2022-08-18T18:14:27;24.80;47.20
6986;DHT22;3533;51.246;6.850;2022-08-18T18:17:13;24.80;47.30
6986;DHT22;3533;51.246;6.850;2022-08-18T18:19:48;24.80;47.20
6986;DHT22;3533;51.246;6.850;2022-08-18T18:22:25;24.80;47.20
6986;DHT22;3533;51.246;6.850;2022-08-18T18:24:59;24.80;47.20
6986;DHT22;3533;51.246;6.850;2022-08-18T18:27:45;24.80;47.20
6986;DHT22;3533;51.246;6.850;2022-08-18T18:35:29;24.80;47.20
6986;DHT22;3533;51.246;6.850;2022-08-18T18:38:01;24.80;47.20
6986;DHT22;3533;51.246;6.850;2022-08-18T18:40:35;24.80;47.20
6986;DHT22;3533;51.246;6.850;2022-08-18T18:43:26;24.80;47.20
6986;DHT22;3533;51.246;6.850;2022-08-18T18:51:16;24.80;47.10
6986;DHT22;3533;51.246;6.850;2022-08-18T18:53:54;24.80;47.20
6986;DHT22;3533;51.246;6.850;2022-08-18T18:56:31;24.80;47.20
6986;DHT22;3533;51.246;6.850;2022-08-18T18:59:03;24.80;47.20
6986;DHT22;3533;51.246;6.850;2022-08-18T19:04:25;24.80;47.20